| Date | Time | Temp. (oF) | Dew Point (oF) | Rel. Hum. (%) | Press. (in.) | Wind Dir. | Wind Speed (mph) | Hourly Rainfall (in.) |
|
|---|---|---|---|---|---|---|---|---|---|
| 1 | 08/05 | 00:00 | 78 | 74 | 88 | 30.04 | S | 2 | 0.00 |
| 2 | 08/04 | 23:00 | 80 | 73 | 82 | 30.05 | SSW | 1 | 0.00 |
| 3 | 08/04 | 22:00 | 82 | 73 | 75 | 30.04 | S | 2 | 0.00 |
| 4 | 08/04 | 21:00 | 85 | 73 | 69 | 30.03 | S | 0 | 0.00 |
| 5 | 08/04 | 20:00 | 88 | 73 | 62 | 30.01 | S | 2 | 0.00 |
| 6 | 08/04 | 19:00 | 91 | 71 | 53 | 30.00 | SSE | 7 | 0.00 |
| 7 | 08/04 | 18:00 | 94 | 69 | 45 | 30.01 | S | 7 | 0.00 |
| 8 | 08/04 | 17:00 | 95 | 70 | 45 | 30.01 | WSW | 7 | 0.00 |
| 9 | 08/04 | 16:00 | 96 | 70 | 44 | 30.02 | SW | 4 | 0.00 |
| 10 | 08/04 | 15:00 | 95 | 70 | 46 | 30.04 | WSW | 4 | 0.00 |
| 11 | 08/04 | 14:00 | 93 | 76 | 59 | 30.06 | S | 4 | 0.00 |
| 12 | 08/04 | 13:00 | 91 | 75 | 60 | 30.08 | WSW | 1 | 0.00 |
| 13 | 08/04 | 12:00 | 91 | 77 | 64 | 30.09 | S | 7 | 0.00 |
| 14 | 08/04 | 11:00 | 89 | 75 | 65 | 30.09 | SSE | 1 | 0.00 |
| 15 | 08/04 | 10:00 | 84 | 76 | 78 | 30.09 | N | 3 | 0.00 |
| 16 | 08/04 | 09:00 | 80 | 76 | 89 | 30.09 | SSW | 3 | 0.00 |
| 17 | 08/04 | 08:00 | 74 | 73 | 100 | 30.08 | SSW | 0 | 0.00 |
| 18 | 08/04 | 07:00 | 72 | 72 | 100 | 30.07 | SSW | 0 | 0.00 |
| 19 | 08/04 | 06:00 | 73 | 72 | 100 | 30.06 | SSW | 0 | 0.00 |
| 20 | 08/04 | 05:00 | 73 | 72 | 100 | 30.04 | SSW | 0 | 0.00 |
| 21 | 08/04 | 04:00 | 74 | 73 | 100 | 30.03 | SSW | 0 | 0.00 |
| 22 | 08/04 | 03:00 | 75 | 73 | 96 | 30.03 | SSW | 0 | 0.00 |
| 23 | miss | miss | miss | miss | miss | miss | miss | miss | |
| 24 | 08/04 | 02:39 | 76 | 74 | 96 | 30.03 | SSW | 0 | 0.00 |
| 25 | miss | miss | miss | miss | miss | miss | miss | miss | |
| 26 | 08/04 | 02:38 | 76 | 74 | 96 | 30.03 | SSW | 0 | 0.00 |
| 27 | miss | miss | miss | miss | miss | miss | miss | miss | |
| 28 | 08/04 | 02:38 | 76 | 74 | 96 | 30.03 | SSW | 0 | 0.00 |
| 29 | miss | miss | miss | miss | miss | miss | miss | miss | |
| 30 | 08/04 | 02:38 | 76 | 74 | 96 | 30.03 | SSW | 0 | 0.00 |
| 31 | miss | miss | miss | miss | miss | miss | miss | miss | |
| 32 | 08/04 | 02:38 | 76 | 74 | 96 | 30.03 | SSW | 0 | 0.00 |
| 33 | miss | miss | miss | miss | miss | miss | miss | miss | |
| 34 | 08/04 | 02:38 | 76 | 74 | 96 | 30.03 | SSW | 0 | 0.00 |
| 35 | miss | miss | miss | miss | miss | miss | miss | miss | |
| 36 | 08/04 | 02:38 | 76 | 74 | 96 | 30.03 | SSW | 0 | 0.00 |
| 37 | miss | miss | miss | miss | miss | miss | miss | miss | |
| 38 | 08/04 | 02:38 | 76 | 74 | 96 | 30.03 | SSW | 0 | 0.00 |
| 39 | miss | miss | miss | miss | miss | miss | miss | miss | |
| 40 | 08/04 | 02:38 | 76 | 74 | 96 | 30.03 | SSW | 0 | 0.00 |
| 41 | miss | miss | miss | miss | miss | miss | miss | miss | |
| 42 | 08/04 | 02:38 | 76 | 74 | 96 | 30.03 | SSW | 0 | 0.00 |
| 43 | miss | miss | miss | miss | miss | miss | miss | miss | |
| 44 | 08/04 | 02:38 | 76 | 74 | 96 | 30.03 | SSW | 0 | 0.00 |
| 45 | miss | miss | miss | miss | miss | miss | miss | miss | |
| 46 | 08/04 | 02:38 | 76 | 74 | 96 | 30.03 | SSW | 0 | 0.00 |
| 47 | 08/04 | 02:00 | 76 | 74 | 95 | 30.03 | SSW | 0 | 0.00 |
| 48 | miss | miss | miss | miss | miss | miss | miss | miss | |
| 49 | 08/04 | 01:24 | 77 | 75 | 95 | 30.02 | SSW | 1 | 0.00 |
| 50 | miss | miss | miss | miss | miss | miss | miss | miss | |
| 51 | 08/04 | 01:24 | 77 | 75 | 95 | 30.02 | SSW | 1 | 0.00 |
| 52 | miss | miss | miss | miss | miss | miss | miss | miss | |
| 53 | 08/04 | 01:24 | 77 | 75 | 95 | 30.02 | SSW | 1 | 0.00 |
| 54 | miss | miss | miss | miss | miss | miss | miss | miss | |
| 55 | 08/04 | 01:24 | 77 | 75 | 95 | 30.02 | SSW | 1 | 0.00 |
| 56 | miss | miss | miss | miss | miss | miss | miss | miss | |
| 57 | 08/04 | 01:24 | 77 | 75 | 95 | 30.02 | SSW | 1 | 0.00 |
| 58 | miss | miss | miss | miss | miss | miss | miss | miss | |
| 59 | 08/04 | 01:24 | 77 | 75 | 95 | 30.02 | SSW | 1 | 0.00 |
| 60 | miss | miss | miss | miss | miss | miss | miss | miss | |
| 61 | 08/04 | 01:24 | 77 | 75 | 95 | 30.02 | SSW | 1 | 0.00 |
| 62 | miss | miss | miss | miss | miss | miss | miss | miss | |
| 63 | 08/04 | 01:24 | 77 | 75 | 95 | 30.02 | SSW | 1 | 0.00 |
| 64 | miss | miss | miss | miss | miss | miss | miss | miss | |
| 65 | 08/04 | 01:24 | 77 | 75 | 95 | 30.02 | SSW | 1 | 0.00 |
| 66 | miss | miss | miss | miss | miss | miss | miss | miss | |
| 67 | 08/04 | 01:24 | 77 | 75 | 95 | 30.02 | SSW | 1 | 0.00 |
| 68 | miss | miss | miss | miss | miss | miss | miss | miss | |
| 69 | 08/04 | 01:24 | 77 | 75 | 95 | 30.02 | SSW | 1 | 0.00 |
| 70 | miss | miss | miss | miss | miss | miss | miss | miss | |
| 71 | 08/04 | 01:24 | 77 | 75 | 95 | 30.02 | SSW | 1 | 0.00 |
| 72 | 08/04 | 01:00 | 77 | 75 | 95 | 30.02 | SSW | 1 | 0.00 |
| 73 | 08/04 | 00:00 | 79 | 76 | 91 | 30.01 | SW | 0 | 0.00 |
| 74 | 08/03 | 23:00 | 80 | 76 | 90 | 30.00 | SSW | 0 | 0.00 |
| 75 | 08/03 | 22:00 | 82 | 78 | 88 | 30.00 | SSW | 2 | 0.00 |
| 76 | 08/03 | 21:00 | 85 | 77 | 78 | 29.98 | SSW | 2 | 0.00 |
| 77 | 08/03 | 20:00 | 91 | 73 | 57 | 29.96 | WNW | 1 | 0.00 |
| 78 | 08/03 | 19:00 | 93 | 72 | 51 | 29.94 | W | 3 | 0.00 |
| 79 | 08/03 | 18:00 | 95 | 72 | 48 | 29.93 | WNW | 3 | 0.00 |
| 80 | 08/03 | 17:00 | 95 | 72 | 49 | 29.93 | NNW | 7 | 0.00 |
| 81 | 08/03 | 16:00 | 95 | 70 | 45 | 29.95 | NNW | 4 | 0.00 |
| 82 | 08/03 | 15:00 | 94 | 72 | 51 | 29.97 | W | 7 | 0.00 |
| 83 | 08/03 | 14:00 | 93 | 72 | 51 | 29.99 | N | 6 | 0.00 |
| 84 | 08/03 | 13:00 | 92 | 71 | 52 | 30.01 | NNW | 5 | 0.00 |
| 85 | 08/03 | 12:00 | 90 | 74 | 60 | 30.02 | N | 2 | 0.00 |
| 86 | 08/03 | 11:00 | 88 | 74 | 64 | 30.03 | N | 5 | 0.00 |
| 87 | 08/03 | 10:00 | 85 | 73 | 69 | 30.04 | NW | 3 | 0.00 |
| 88 | 08/03 | 09:00 | 80 | 74 | 83 | 30.04 | NNW | 6 | 0.00 |
| 89 | 08/03 | 08:00 | 73 | 72 | 100 | 30.03 | S | 0 | 0.00 |
| 90 | 08/03 | 07:00 | 71 | 71 | 100 | 30.02 | SW | 0 | 0.00 |
| 91 | 08/03 | 06:00 | 72 | 71 | 99 | 30.01 | SW | 2 | 0.00 |
| 92 | 08/03 | 05:00 | 72 | 71 | 97 | 30.00 | SW | 0 | 0.00 |
| 93 | 08/03 | 04:00 | 73 | 71 | 96 | 29.99 | SW | 0 | 0.00 |
| 94 | 08/03 | 03:00 | 75 | 72 | 93 | 29.99 | W | 0 | 0.00 |
| 95 | 08/03 | 02:00 | 77 | 74 | 91 | 29.99 | WSW | 0 | 0.00 |
| 96 | 08/03 | 01:00 | 78 | 75 | 93 | 30.00 | NW | 3 | 0.00 |
| 97 | 08/03 | 00:00 | 79 | 77 | 95 | 29.99 | WSW | 0 | 0.00 |